createdAt,value
2023-03-11T00:00:47.515Z,97714.85
2023-03-11T00:03:27.064Z,97712.76
2023-03-11T00:05:53.971Z,97714.50
2023-03-11T00:08:22.628Z,97704.45
2023-03-11T00:10:54.760Z,97704.86
2023-03-11T00:13:22.139Z,97703.45
2023-03-11T00:15:50.491Z,97703.09
2023-03-11T00:18:17.412Z,97695.20
2023-03-11T00:20:45.682Z,97699.73
2023-03-11T00:23:14.107Z,97705.36
2023-03-11T00:25:43.234Z,97700.30
2023-03-11T00:28:10.599Z,97701.38
2023-03-11T00:30:38.639Z,97704.00
2023-03-11T00:33:05.309Z,97699.78
2023-03-11T00:35:32.252Z,97709.75
2023-03-11T00:38:01.567Z,97711.54
2023-03-11T00:40:30.907Z,97716.95
2023-03-11T00:42:58.047Z,97713.81
2023-03-11T00:45:28.175Z,97711.52
2023-03-11T00:47:55.774Z,97708.77
2023-03-11T00:50:27.817Z,97704.63
2023-03-11T00:52:54.694Z,97705.27
2023-03-11T00:55:23.915Z,97704.90
2023-03-11T00:57:55.882Z,97704.95
2023-03-11T01:00:23.731Z,97705.25
2023-03-11T01:02:51.398Z,97711.42
2023-03-11T01:05:20.732Z,97719.34
2023-03-11T01:07:47.517Z,97724.88
2023-03-11T01:10:14.692Z,97725.05
2023-03-11T01:12:41.487Z,97732.17
2023-03-11T01:15:09.157Z,97731.58
2023-03-11T01:17:35.687Z,97736.27
2023-03-11T01:20:05.581Z,97729.15
2023-03-11T01:22:32.345Z,97733.51
2023-03-11T01:24:58.814Z,97732.84
2023-03-11T01:27:28.207Z,97731.37
2023-03-11T01:29:54.671Z,97731.82
2023-03-11T01:32:21.347Z,97732.95
2023-03-11T01:34:47.868Z,97733.36
2023-03-11T01:37:14.260Z,97730.38
2023-03-11T01:39:40.790Z,97732.58
2023-03-11T01:42:07.145Z,97734.69
2023-03-11T01:44:33.608Z,97733.43
2023-03-11T01:47:01.656Z,97734.00
2023-03-11T01:49:28.029Z,97735.31
2023-03-11T01:51:57.783Z,97738.58
2023-03-11T01:54:27.826Z,97740.30
2023-03-11T01:56:54.697Z,97735.08
2023-03-11T01:59:23.925Z,97736.10
2023-03-11T02:02:29.414Z,97735.90
2023-03-11T02:04:56.497Z,97735.44
2023-03-11T02:07:22.862Z,97733.93
2023-03-11T02:09:49.258Z,97731.73
2023-03-11T02:12:15.863Z,97730.71
2023-03-11T02:14:50.410Z,97733.81
2023-03-11T02:17:17.117Z,97740.73
2023-03-11T02:19:55.151Z,97740.20
2023-03-11T02:22:22.206Z,97735.87
2023-03-11T02:25:06.695Z,97743.95
2023-03-11T02:27:34.099Z,97740.36
2023-03-11T02:30:00.964Z,97742.00
2023-03-11T02:32:27.662Z,97741.83
2023-03-11T02:34:54.056Z,97739.79
2023-03-11T02:37:20.475Z,97738.73
2023-03-11T02:39:53.969Z,97730.31
2023-03-11T02:42:25.278Z,97737.85
2023-03-11T02:44:58.800Z,97740.27
2023-03-11T02:47:26.010Z,97739.92
2023-03-11T02:49:54.472Z,97738.06
2023-03-11T02:52:21.780Z,97733.12
2023-03-11T02:54:48.088Z,97739.37
2023-03-11T02:57:14.603Z,97738.95
2023-03-11T02:59:41.009Z,97745.39
2023-03-11T03:02:07.569Z,97752.50
2023-03-11T03:04:34.164Z,97774.95
2023-03-11T03:07:00.602Z,97795.15
2023-03-11T03:09:27.074Z,97804.65
2023-03-11T03:11:53.539Z,97812.39
2023-03-11T03:14:20.090Z,97823.84
2023-03-11T03:16:46.575Z,97832.52
2023-03-11T03:19:13.039Z,97827.44
2023-03-11T03:21:40.445Z,97830.15
2023-03-11T03:24:07.095Z,97841.23
2023-03-11T03:26:33.448Z,97848.84
2023-03-11T03:28:59.811Z,97855.88
2023-03-11T03:31:26.334Z,97856.88
2023-03-11T03:33:52.961Z,97862.89
2023-03-11T03:36:19.424Z,97863.44
2023-03-11T03:38:45.896Z,97867.98
2023-03-11T03:41:15.482Z,97870.01
2023-03-11T03:43:41.940Z,97866.87
2023-03-11T03:46:08.441Z,97874.26
2023-03-11T03:48:35.244Z,97872.66
2023-03-11T03:51:06.731Z,97871.41
2023-03-11T03:53:34.425Z,97884.66
2023-03-11T03:56:05.663Z,97876.82
2023-03-11T03:58:32.245Z,97886.57
2023-03-11T04:00:59.696Z,97897.46
2023-03-11T04:03:27.054Z,97894.08
2023-03-11T04:05:53.701Z,97904.72
2023-03-11T04:08:20.727Z,97916.39
2023-03-11T04:10:56.539Z,97918.66
2023-03-11T04:13:23.363Z,97936.94
2023-03-11T04:15:49.823Z,97929.16
2023-03-11T04:18:16.477Z,97938.92
2023-03-11T04:20:43.191Z,97933.93
2023-03-11T04:23:09.802Z,97943.27
2023-03-11T04:25:36.109Z,97938.33
2023-03-11T04:28:02.478Z,97935.37
2023-03-11T04:30:28.902Z,97944.40
2023-03-11T04:32:55.316Z,97951.88
2023-03-11T04:35:21.979Z,97947.69
2023-03-11T04:37:48.568Z,97949.69
2023-03-11T04:40:15.210Z,97947.59
2023-03-11T04:42:41.884Z,97947.55
2023-03-11T04:45:10.492Z,97946.02
2023-03-11T04:47:36.975Z,97955.60
2023-03-11T04:50:04.078Z,97955.20
2023-03-11T04:52:30.610Z,97949.87
2023-03-11T04:54:56.950Z,97957.77
2023-03-11T04:57:26.299Z,97953.10
2023-03-11T04:59:52.630Z,97961.59
2023-03-11T05:02:19.087Z,97962.95
2023-03-11T05:04:45.927Z,97968.11
2023-03-11T05:07:12.425Z,97972.61
2023-03-11T05:09:38.924Z,97961.92
2023-03-11T05:12:05.889Z,97969.16
2023-03-11T05:14:32.299Z,97967.39
2023-03-11T05:16:58.743Z,97974.33
2023-03-11T05:19:31.676Z,97978.52
2023-03-11T05:21:58.195Z,97981.92
2023-03-11T05:24:27.487Z,97985.12
2023-03-11T05:26:54.644Z,97994.95
2023-03-11T05:29:21.555Z,97996.52
2023-03-11T05:31:48.243Z,98003.77
2023-03-11T05:34:15.671Z,98006.40
2023-03-11T05:36:42.571Z,98005.61
2023-03-11T05:39:08.900Z,98008.52
2023-03-11T05:41:35.846Z,98010.35
2023-03-11T05:44:02.322Z,98014.55
2023-03-11T05:46:29.170Z,98019.64
2023-03-11T05:48:55.800Z,98024.52
2023-03-11T05:51:22.304Z,98029.13
2023-03-11T05:53:48.873Z,98031.05
2023-03-11T05:56:15.670Z,98047.11
2023-03-11T05:58:42.164Z,98045.59
2023-03-11T06:01:10.348Z,98053.25
2023-03-11T06:03:38.150Z,98059.03
2023-03-11T06:06:07.031Z,98056.98
2023-03-11T06:08:36.406Z,98069.73
2023-03-11T06:11:08.133Z,98079.15
2023-03-11T06:13:36.107Z,98074.23
2023-03-11T06:16:03.552Z,98083.97
2023-03-11T06:18:30.130Z,98088.23
2023-03-11T06:21:01.339Z,98094.22
2023-03-11T06:23:29.146Z,98101.42
2023-03-11T06:26:00.157Z,98110.20
2023-03-11T06:28:27.823Z,98113.98
2023-03-11T06:30:56.092Z,98113.02
2023-03-11T06:33:23.459Z,98122.33
2023-03-11T06:36:00.753Z,98128.15
2023-03-11T06:38:27.665Z,98136.97
2023-03-11T06:40:54.108Z,98145.05
2023-03-11T06:43:21.582Z,98154.06
2023-03-11T06:45:48.212Z,98160.92
2023-03-11T06:48:14.736Z,98163.55
2023-03-11T06:50:41.197Z,98177.30
2023-03-11T06:53:07.883Z,98180.99
2023-03-11T06:55:35.161Z,98187.17
2023-03-11T06:58:01.824Z,98193.17
2023-03-11T07:00:30.444Z,98203.66
2023-03-11T07:02:57.353Z,98211.31
2023-03-11T07:05:24.003Z,98219.45
2023-03-11T07:07:53.481Z,98233.06
2023-03-11T07:10:20.269Z,98230.23
2023-03-11T07:12:46.860Z,98243.81
2023-03-11T07:15:13.491Z,98257.00
2023-03-11T07:17:41.716Z,98258.84
2023-03-11T07:20:09.034Z,98270.44
2023-03-11T07:22:35.345Z,98273.71
2023-03-11T07:25:01.676Z,98280.18
2023-03-11T07:27:28.462Z,98287.88
2023-03-11T07:29:55.261Z,98285.61
2023-03-11T07:32:21.644Z,98292.33
2023-03-11T07:34:48.520Z,98300.10
2023-03-11T07:37:15.424Z,98306.64
2023-03-11T07:39:42.145Z,98317.30
2023-03-11T07:42:08.623Z,98323.77
2023-03-11T07:44:35.403Z,98340.68
2023-03-11T07:47:03.661Z,98345.43
2023-03-11T07:49:30.308Z,98353.90
2023-03-11T07:51:56.800Z,98360.98
2023-03-11T07:54:23.605Z,98370.43
2023-03-11T07:56:50.101Z,98380.41
2023-03-11T07:59:16.628Z,98389.90
2023-03-11T08:01:46.472Z,98401.60
2023-03-11T08:04:16.294Z,98405.07
2023-03-11T08:06:44.852Z,98411.91
2023-03-11T08:09:11.646Z,98423.83
2023-03-11T08:11:38.408Z,98428.71
2023-03-11T08:14:05.634Z,98440.06
2023-03-11T08:16:32.358Z,98450.58
2023-03-11T08:18:59.877Z,98455.87
2023-03-11T08:21:29.464Z,98464.01
2023-03-11T08:24:00.140Z,98477.42
2023-03-11T08:26:27.255Z,98489.45
2023-03-11T08:28:54.441Z,98493.13
2023-03-11T08:31:25.987Z,98510.23
2023-03-11T08:33:55.497Z,98516.45
2023-03-11T08:36:22.352Z,98523.86
2023-03-11T08:38:49.171Z,98527.67
2023-03-11T08:41:15.821Z,98535.16
2023-03-11T08:43:43.859Z,98548.29
2023-03-11T08:46:17.696Z,98553.26
2023-03-11T08:48:44.093Z,98570.02
2023-03-11T08:51:12.354Z,98578.08
2023-03-11T08:53:39.333Z,98585.57
2023-03-11T08:56:05.985Z,98592.80
2023-03-11T08:58:32.419Z,98604.83
2023-03-11T09:00:58.964Z,98609.70
2023-03-11T09:03:25.525Z,98616.60
2023-03-11T09:05:59.100Z,98627.45
2023-03-11T09:08:26.087Z,98633.47
2023-03-11T09:10:52.516Z,98638.62
2023-03-11T09:13:19.182Z,98649.77
2023-03-11T09:15:45.756Z,98660.27
2023-03-11T09:18:13.372Z,98670.92
2023-03-11T09:20:40.875Z,98667.94
2023-03-11T09:23:08.507Z,98684.25
2023-03-11T09:25:35.082Z,98689.91
2023-03-11T09:28:01.931Z,98700.71
2023-03-11T09:30:28.415Z,98705.05
2023-03-11T09:32:55.574Z,98714.45
2023-03-11T09:35:22.030Z,98717.75
2023-03-11T09:37:48.813Z,98734.02
2023-03-11T09:40:20.693Z,98741.96
2023-03-11T09:43:03.261Z,98752.82
2023-03-11T09:45:31.754Z,98757.38
2023-03-11T09:48:26.490Z,98766.47
2023-03-11T09:50:58.237Z,98773.73
2023-03-11T09:53:33.829Z,98796.64
2023-03-11T09:56:04.307Z,98796.91
2023-03-11T09:58:41.656Z,98800.84
2023-03-11T10:01:16.281Z,98813.75
2023-03-11T10:03:43.359Z,98816.00
2023-03-11T10:06:17.087Z,98820.08
2023-03-11T10:08:48.868Z,98827.14
2023-03-11T10:11:30.609Z,98828.01
2023-03-11T10:14:06.882Z,98832.06
2023-03-11T10:16:55.377Z,98838.14
2023-03-11T10:19:37.036Z,98846.31
2023-03-11T10:22:23.954Z,98846.36
2023-03-11T10:25:25.239Z,98857.03
2023-03-11T10:27:55.377Z,98864.30
2023-03-11T10:30:25.997Z,98862.59
2023-03-11T10:33:19.896Z,98874.81
2023-03-11T10:35:51.809Z,98882.52
2023-03-11T10:38:21.705Z,98884.11
2023-03-11T10:40:51.499Z,98889.19
2023-03-11T10:43:23.000Z,98892.67
2023-03-11T10:45:50.590Z,98894.26
2023-03-11T10:48:18.891Z,98901.42
2023-03-11T10:51:02.967Z,98905.39
2023-03-11T10:53:30.695Z,98908.40
2023-03-11T10:55:58.663Z,98919.84
2023-03-11T10:58:30.382Z,98927.77
2023-03-11T11:01:01.261Z,98932.77
2023-03-11T11:03:28.337Z,98940.57
2023-03-11T11:06:01.396Z,98948.23
2023-03-11T11:08:28.580Z,98946.79
2023-03-11T11:10:57.439Z,98951.87
2023-03-11T11:13:30.526Z,98927.02
2023-03-11T11:16:00.993Z,98953.55
2023-03-11T11:18:44.191Z,98962.39
2023-03-11T11:21:14.861Z,98964.51
2023-03-11T11:23:41.605Z,98971.68
2023-03-11T11:26:20.509Z,98982.10
2023-03-11T11:29:14.856Z,98986.06
2023-03-11T11:31:44.171Z,98986.31
2023-03-11T11:34:29.575Z,98987.21
2023-03-11T11:36:56.732Z,98995.38
2023-03-11T11:39:26.390Z,98999.05
2023-03-11T11:41:55.905Z,99004.23
2023-03-11T11:44:29.883Z,99000.76
2023-03-11T11:46:59.282Z,99009.91
2023-03-11T11:49:28.817Z,99012.78
2023-03-11T11:52:14.291Z,99011.89
2023-03-11T11:54:46.566Z,99019.70
2023-03-11T11:57:15.677Z,99019.98
2023-03-11T11:59:43.078Z,99030.52
2023-03-11T12:02:15.787Z,99035.98
2023-03-11T12:05:05.888Z,99044.83
2023-03-11T12:07:47.411Z,99050.67
2023-03-11T12:10:36.735Z,99048.70
2023-03-11T12:13:43.542Z,99051.64
2023-03-11T12:16:19.072Z,99048.97
2023-03-11T12:19:16.637Z,99060.01
2023-03-11T12:21:43.284Z,99062.95
2023-03-11T12:24:12.805Z,99066.88
2023-03-11T12:26:41.755Z,99066.17
2023-03-11T12:29:19.839Z,99074.51
2023-03-11T12:31:47.080Z,99075.06
2023-03-11T12:34:17.353Z,99073.42
2023-03-11T12:36:45.169Z,99071.47
2023-03-11T12:39:23.210Z,99077.50
2023-03-11T12:42:15.917Z,99079.50
2023-03-11T12:44:42.884Z,99083.29
2023-03-11T12:47:17.510Z,99095.83
2023-03-11T12:49:46.069Z,99107.23
2023-03-11T12:52:15.581Z,99124.33
2023-03-11T12:55:02.673Z,99157.30
2023-03-11T12:57:50.672Z,99153.58
2023-03-11T13:00:29.790Z,99156.63
2023-03-11T13:03:08.980Z,99160.64
2023-03-11T13:05:48.504Z,99174.48
2023-03-11T13:08:23.823Z,99175.30
2023-03-11T13:10:52.019Z,99179.36
2023-03-11T13:13:30.721Z,99188.25
2023-03-11T13:15:58.378Z,99189.65
2023-03-11T13:18:29.790Z,99196.34
2023-03-11T13:21:00.728Z,99196.54
2023-03-11T13:23:36.350Z,99196.25
2023-03-11T13:26:09.131Z,99195.80
2023-03-11T13:28:51.475Z,99203.05
2023-03-11T13:31:37.676Z,99214.79
2023-03-11T13:34:55.037Z,99219.77
2023-03-11T13:37:30.829Z,99230.03
2023-03-11T13:40:13.627Z,99231.09
2023-03-11T13:42:50.532Z,99236.05
2023-03-11T13:45:33.794Z,99248.59
2023-03-11T13:48:26.518Z,99247.05
2023-03-11T13:51:30.748Z,99250.95
2023-03-11T13:54:02.044Z,99261.52
2023-03-11T13:56:31.256Z,99264.35
2023-03-11T13:59:17.651Z,99266.23
2023-03-11T14:01:51.695Z,99275.16
2023-03-11T14:04:27.044Z,99275.38
2023-03-11T14:06:53.779Z,99275.31
2023-03-11T14:09:23.088Z,99280.36
2023-03-11T14:11:51.810Z,99293.16
2023-03-11T14:14:40.456Z,99294.48
2023-03-11T14:17:13.161Z,99304.39
2023-03-11T14:19:39.723Z,99308.69
2023-03-11T14:22:08.023Z,99313.70
2023-03-11T14:24:35.360Z,99322.58
2023-03-11T14:27:05.963Z,99327.88
2023-03-11T14:29:34.099Z,99332.14
2023-03-11T14:32:27.174Z,99336.78
2023-03-11T14:34:54.714Z,99343.06
2023-03-11T14:37:39.454Z,99347.21
2023-03-11T14:40:38.491Z,99356.52
2023-03-11T14:43:06.996Z,99359.26
2023-03-11T14:45:36.874Z,99363.80
2023-03-11T14:48:14.697Z,99368.52
2023-03-11T14:50:43.713Z,99372.70
2023-03-11T14:53:23.589Z,99374.70
2023-03-11T14:55:55.236Z,99375.66
2023-03-11T14:58:30.786Z,99376.17
2023-03-11T15:01:03.389Z,99376.67
2023-03-11T15:03:33.712Z,99382.20
2023-03-11T15:06:07.108Z,99377.61
2023-03-11T15:08:38.037Z,99385.58
2023-03-11T15:11:19.075Z,99381.94
2023-03-11T15:13:50.353Z,99386.63
2023-03-11T15:16:34.740Z,99389.54
2023-03-11T15:19:22.010Z,99393.48
2023-03-11T15:21:53.628Z,99389.36
2023-03-11T15:24:27.783Z,99396.06
2023-03-11T15:26:57.688Z,99402.09
2023-03-11T15:29:25.142Z,99407.48
2023-03-11T15:31:51.552Z,99409.66
2023-03-11T15:34:18.066Z,99415.39
2023-03-11T15:36:44.543Z,99413.66
2023-03-11T15:39:11.016Z,99421.63
2023-03-11T15:41:37.683Z,99422.29
2023-03-11T15:44:06.857Z,99428.38
2023-03-11T15:46:34.071Z,99433.24
2023-03-11T15:49:00.561Z,99439.84
2023-03-11T15:51:27.053Z,99445.36
2023-03-11T15:53:53.844Z,99447.52
2023-03-11T15:56:23.943Z,99453.73
2023-03-11T15:58:50.459Z,99460.54
2023-03-11T16:01:17.850Z,99465.48
2023-03-11T16:03:44.290Z,99467.00
2023-03-11T16:06:10.708Z,99470.64
2023-03-11T16:08:37.082Z,99476.48
2023-03-11T16:11:03.728Z,99480.02
2023-03-11T16:13:30.154Z,99480.08
2023-03-11T16:15:56.748Z,99486.73
2023-03-11T16:18:23.657Z,99492.81
2023-03-11T16:20:51.877Z,99501.71
2023-03-11T16:23:26.066Z,99507.27
2023-03-11T16:25:58.758Z,99511.70
2023-03-11T16:28:25.354Z,99515.78
2023-03-11T16:30:52.208Z,99525.38
2023-03-11T16:33:18.781Z,99528.88
2023-03-11T16:35:45.824Z,99528.62
2023-03-11T16:38:12.721Z,99529.02
2023-03-11T16:40:39.722Z,99537.99
2023-03-11T16:43:07.207Z,99541.63
2023-03-11T16:45:33.828Z,99545.92
2023-03-11T16:48:00.660Z,99549.16
2023-03-11T16:50:27.416Z,99559.37
2023-03-11T16:52:55.098Z,99562.00
2023-03-11T16:55:22.421Z,99557.38
2023-03-11T16:57:48.989Z,99562.25
2023-03-11T17:00:18.972Z,99565.43
2023-03-11T17:02:45.951Z,99572.67
2023-03-11T17:05:12.460Z,99579.23
2023-03-11T17:07:39.918Z,99587.55
2023-03-11T17:10:09.825Z,99593.08
2023-03-11T17:12:36.480Z,99597.19
2023-03-11T17:15:05.725Z,99604.17
2023-03-11T17:17:32.358Z,99608.61
2023-03-11T17:19:58.808Z,99613.65
2023-03-11T17:22:25.662Z,99620.00
2023-03-11T17:24:52.176Z,99623.92
2023-03-11T17:27:18.812Z,99624.14
2023-03-11T17:29:45.298Z,99630.77
2023-03-11T17:32:17.107Z,99636.00
2023-03-11T17:34:44.255Z,99636.10
2023-03-11T17:37:10.803Z,99639.84
2023-03-11T17:39:37.338Z,99640.60
2023-03-11T17:42:04.158Z,99651.73
2023-03-11T17:44:44.551Z,99653.56
2023-03-11T17:47:19.014Z,99657.20
2023-03-11T17:49:45.670Z,99664.15
2023-03-11T17:52:12.405Z,99669.73
2023-03-11T17:54:39.067Z,99669.55
2023-03-11T17:57:05.685Z,99673.17
2023-03-11T17:59:32.265Z,99675.77
2023-03-11T18:01:58.750Z,99678.00
2023-03-11T18:04:25.656Z,99690.61
2023-03-11T18:06:53.759Z,99693.63
2023-03-11T18:09:20.703Z,99699.52
2023-03-11T18:11:47.228Z,99699.61
2023-03-11T18:14:13.784Z,99703.73
2023-03-11T18:16:40.567Z,99708.86
2023-03-11T18:19:07.217Z,99710.81
2023-03-11T18:21:33.652Z,99711.71
2023-03-11T18:24:00.637Z,99715.95
2023-03-11T18:26:30.346Z,99717.74
2023-03-11T18:28:58.533Z,99724.44
2023-03-11T18:31:26.253Z,99724.73
2023-03-11T18:37:58.969Z,99736.69
2023-03-11T18:41:45.302Z,99737.38
2023-03-11T18:45:01.264Z,99743.39
2023-03-11T18:47:28.521Z,99744.63
2023-03-11T18:50:19.740Z,99748.53
2023-03-11T18:52:46.981Z,99754.98
2023-03-11T18:55:13.620Z,99758.71
2023-03-11T18:57:42.407Z,99759.14
2023-03-11T19:00:09.606Z,99761.63
2023-03-11T19:02:36.278Z,99769.13
2023-03-11T19:05:03.656Z,99772.78
2023-03-11T19:07:30.123Z,99771.86
2023-03-11T19:09:56.704Z,99772.11
2023-03-11T19:12:23.217Z,99782.08
2023-03-11T19:14:50.108Z,99780.05
2023-03-11T19:17:17.706Z,99784.26
2023-03-11T19:19:44.557Z,99786.96
2023-03-11T19:22:11.204Z,99796.63
2023-03-11T19:24:37.796Z,99786.46
2023-03-11T19:27:04.343Z,99800.20
2023-03-11T19:29:37.008Z,99800.32
2023-03-11T19:32:04.299Z,99804.23
2023-03-11T19:37:32.248Z,99810.56
2023-03-11T19:40:04.733Z,99810.92
2023-03-11T19:42:35.602Z,99815.17
2023-03-11T19:45:29.798Z,99821.66
2023-03-11T19:47:56.636Z,99825.20
2023-03-11T19:50:23.280Z,99827.03
2023-03-11T19:52:49.964Z,99828.05
2023-03-11T19:55:16.503Z,99830.14
2023-03-11T19:57:43.302Z,99830.33
2023-03-11T20:00:11.948Z,99828.85
2023-03-11T20:02:39.955Z,99827.98
2023-03-11T20:05:07.817Z,99830.91
2023-03-11T20:07:34.415Z,99836.63
2023-03-11T20:10:00.851Z,99839.39
2023-03-11T20:12:27.545Z,99839.71
2023-03-11T20:14:54.026Z,99837.67
2023-03-11T20:17:20.596Z,99846.65
2023-03-11T20:19:47.280Z,99846.02
2023-03-11T20:22:13.873Z,99849.23
2023-03-11T20:24:40.722Z,99850.33
2023-03-11T20:27:07.395Z,99853.34
2023-03-11T20:29:34.013Z,99851.67
2023-03-11T20:32:00.595Z,99856.18
2023-03-11T20:34:27.354Z,99857.58
2023-03-11T20:36:54.034Z,99863.13
2023-03-11T20:39:20.822Z,99861.32
2023-03-11T20:41:47.648Z,99868.12
2023-03-11T20:44:14.434Z,99871.86
2023-03-11T20:46:41.804Z,99871.94
2023-03-11T20:49:08.438Z,99877.73
2023-03-11T20:51:41.022Z,99872.28
2023-03-11T20:54:08.148Z,99867.46
2023-03-11T20:56:34.854Z,99867.40
2023-03-11T20:59:01.501Z,99867.47
2023-03-11T21:01:30.030Z,99868.93
2023-03-11T21:04:00.027Z,99868.46
2023-03-11T21:06:29.871Z,99866.70
2023-03-11T21:08:58.449Z,99866.08
2023-03-11T21:11:26.198Z,99864.48
2023-03-11T21:13:54.013Z,99859.86
2023-03-11T21:16:21.449Z,99863.02
2023-03-11T21:18:49.575Z,99864.03
2023-03-11T21:21:17.740Z,99861.63
2023-03-11T21:23:44.700Z,99864.11
2023-03-11T21:26:13.357Z,99861.59
2023-03-11T21:28:41.463Z,99857.61
2023-03-11T21:31:10.559Z,99859.36
2023-03-11T21:33:38.620Z,99863.36
2023-03-11T21:36:06.744Z,99863.64
2023-03-11T22:16:06.299Z,99873.09
2023-03-11T22:18:33.032Z,99871.00
2023-03-11T22:21:00.234Z,99873.55
2023-03-11T22:23:27.361Z,99877.19
2023-03-11T22:25:53.947Z,99874.45
2023-03-11T22:28:20.668Z,99874.27
2023-03-11T22:30:47.389Z,99875.84
2023-03-11T22:50:12.004Z,99889.33
2023-03-11T22:52:38.436Z,99892.58
2023-03-11T22:55:05.393Z,99893.32
2023-03-11T22:57:38.012Z,99897.19
2023-03-11T23:00:18.681Z,99895.57
2023-03-11T23:02:46.744Z,99900.40
2023-03-11T23:05:14.508Z,99900.60
2023-03-11T23:07:41.508Z,99908.23
2023-03-11T23:10:08.501Z,99911.21
2023-03-11T23:12:36.172Z,99910.40
2023-03-11T23:15:10.245Z,99909.81
2023-03-11T23:17:36.757Z,99909.81
2023-03-11T23:20:05.141Z,99914.14
2023-03-11T23:22:35.346Z,99916.16
2023-03-11T23:25:03.353Z,99917.42
2023-03-11T23:27:29.660Z,99924.71
2023-03-11T23:29:56.262Z,99925.98
2023-03-11T23:32:23.078Z,99931.89
2023-03-11T23:34:49.471Z,99930.27
2023-03-11T23:37:16.192Z,99930.11
2023-03-11T23:39:42.705Z,99931.31
2023-03-11T23:44:41.254Z,99931.52
2023-03-11T23:47:07.902Z,99931.70
2023-03-11T23:49:34.298Z,99932.54
2023-03-11T23:52:00.940Z,99932.07
2023-03-11T23:54:27.484Z,99930.41
2023-03-11T23:56:53.880Z,99929.32
2023-03-11T23:59:20.423Z,99929.55
